sensor_id;sensor_type;location;lat;lon;timestamp;pressure;altitude;pressure_sealevel;temperature;humidity
77250;BME280;66287;42.658;27.568;2023-03-01T04:10:09;100979.94;;;7.37;72.59
77250;BME280;66287;42.658;27.568;2023-03-01T04:12:35;100986.34;;;7.36;72.02
77250;BME280;66287;42.658;27.568;2023-03-01T04:15:01;100982.81;;;7.36;72.55
77250;BME280;66287;42.658;27.568;2023-03-01T04:17:38;100984.66;;;7.35;72.69
77250;BME280;66287;42.658;27.568;2023-03-01T04:20:04;100975.56;;;7.36;72.77
77250;BME280;66287;42.658;27.568;2023-03-01T04:22:30;100976.41;;;7.37;72.81
77250;BME280;66287;42.658;27.568;2023-03-01T04:24:57;100977.41;;;7.36;71.92
77250;BME280;66287;42.658;27.568;2023-03-01T04:27:22;100973.03;;;7.35;72.79
77250;BME280;66287;42.658;27.568;2023-03-01T04:29:47;100972.03;;;7.36;72.69
77250;BME280;66287;42.658;27.568;2023-03-01T04:32:13;100973.72;;;7.37;72.54
77250;BME280;66287;42.658;27.568;2023-03-01T04:34:41;100966.63;;;7.36;72.44
77250;BME280;66287;42.658;27.568;2023-03-01T04:37:06;100957.53;;;7.37;72.60
77250;BME280;66287;42.658;27.568;2023-03-01T04:39:32;100958.69;;;7.34;72.48
77250;BME280;66287;42.658;27.568;2023-03-01T04:41:57;100961.56;;;7.33;71.92
77250;BME280;66287;42.658;27.568;2023-03-01T04:44:23;100956.00;;;7.34;72.45
77250;BME280;66287;42.658;27.568;2023-03-01T04:46:49;100956.16;;;7.33;72.61
77250;BME280;66287;42.658;27.568;2023-03-01T05:28:44;100967.59;;;7.26;72.77
77250;BME280;66287;42.658;27.568;2023-03-01T05:31:09;100965.59;;;7.29;72.94
77250;BME280;66287;42.658;27.568;2023-03-01T06:01:44;100977.66;;;7.58;72.60
77250;BME280;66287;42.658;27.568;2023-03-01T06:04:12;100975.44;;;7.62;72.21
77250;BME280;66287;42.658;27.568;2023-03-01T06:06:37;100976.81;;;7.66;71.76
77250;BME280;66287;42.658;27.568;2023-03-01T06:09:04;100969.41;;;7.68;71.81
77250;BME280;66287;42.658;27.568;2023-03-01T08:52:01;100982.41;;;8.86;70.23
77250;BME280;66287;42.658;27.568;2023-03-01T08:54:27;100984.94;;;8.88;69.67
77250;BME280;66287;42.658;27.568;2023-03-01T08:56:55;100988.66;;;8.87;69.55
77250;BME280;66287;42.658;27.568;2023-03-01T08:59:23;100983.44;;;8.85;70.65
77250;BME280;66287;42.658;27.568;2023-03-01T09:01:50;100989.00;;;8.92;69.85
77250;BME280;66287;42.658;27.568;2023-03-01T09:04:15;100996.09;;;8.93;70.04
77250;BME280;66287;42.658;27.568;2023-03-01T09:06:56;100992.53;;;8.92;69.60
77250;BME280;66287;42.658;27.568;2023-03-01T09:12:08;100987.13;;;8.92;70.47
77250;BME280;66287;42.658;27.568;2023-03-01T09:14:36;100997.78;;;8.94;69.79
77250;BME280;66287;42.658;27.568;2023-03-01T09:17:09;100989.66;;;8.94;69.97
77250;BME280;66287;42.658;27.568;2023-03-01T09:19:34;100990.50;;;8.94;70.17
77250;BME280;66287;42.658;27.568;2023-03-01T09:32:36;100980.69;;;9.02;69.90
77250;BME280;66287;42.658;27.568;2023-03-01T09:35:01;100969.53;;;9.05;70.02
77250;BME280;66287;42.658;27.568;2023-03-01T09:37:35;100968.50;;;9.06;69.58
77250;BME280;66287;42.658;27.568;2023-03-01T09:50:53;100961.00;;;9.24;69.97
77250;BME280;66287;42.658;27.568;2023-03-01T09:55:45;100964.00;;;9.37;69.67
77250;BME280;66287;42.658;27.568;2023-03-01T10:01:59;100959.00;;;9.57;68.84
77250;BME280;66287;42.658;27.568;2023-03-01T10:09:41;100955.16;;;9.74;68.35
77250;BME280;66287;42.658;27.568;2023-03-01T10:12:20;100943.97;;;9.77;68.57
77250;BME280;66287;42.658;27.568;2023-03-01T10:21:32;100942.34;;;9.91;68.46
77250;BME280;66287;42.658;27.568;2023-03-01T10:24:25;100945.91;;;9.91;67.93
77250;BME280;66287;42.658;27.568;2023-03-01T10:27:00;100948.59;;;9.91;68.28
77250;BME280;66287;42.658;27.568;2023-03-01T10:30:40;100946.91;;;9.90;67.91
77250;BME280;66287;42.658;27.568;2023-03-01T10:41:09;100947.09;;;9.89;68.05
77250;BME280;66287;42.658;27.568;2023-03-01T10:43:47;100932.19;;;9.93;68.46
77250;BME280;66287;42.658;27.568;2023-03-01T10:46:37;100938.09;;;9.96;68.36
77250;BME280;66287;42.658;27.568;2023-03-01T12:11:20;100840.13;;;10.60;66.67
77250;BME280;66287;42.658;27.568;2023-03-01T12:14:19;100840.97;;;10.75;66.13
77250;BME280;66287;42.658;27.568;2023-03-01T12:38:08;100836.94;;;11.22;65.49
77250;BME280;66287;42.658;27.568;2023-03-01T13:15:47;100868.81;;;10.98;66.11
77250;BME280;66287;42.658;27.568;2023-03-01T13:19:06;100860.97;;;10.89;65.96
77250;BME280;66287;42.658;27.568;2023-03-01T13:21:51;100865.72;;;10.87;66.09
77250;BME280;66287;42.658;27.568;2023-03-01T13:29:54;100859.38;;;10.80;66.23
77250;BME280;66287;42.658;27.568;2023-03-01T13:32:32;100858.34;;;10.81;65.71
77250;BME280;66287;42.658;27.568;2023-03-01T13:35:02;100857.72;;;10.79;66.47
77250;BME280;66287;42.658;27.568;2023-03-01T13:37:31;100858.28;;;10.74;66.47
77250;BME280;66287;42.658;27.568;2023-03-01T13:39:57;100858.00;;;10.69;66.05
77250;BME280;66287;42.658;27.568;2023-03-01T13:45:35;100852.19;;;10.72;66.65
77250;BME280;66287;42.658;27.568;2023-03-01T13:48:01;100856.97;;;10.70;65.73
77250;BME280;66287;42.658;27.568;2023-03-01T13:50:28;100853.03;;;10.73;66.89
77250;BME280;66287;42.658;27.568;2023-03-01T13:52:59;100865.19;;;10.77;66.40
77250;BME280;66287;42.658;27.568;2023-03-01T13:55:27;100850.78;;;10.76;66.42
77250;BME280;66287;42.658;27.568;2023-03-01T13:57:58;100848.53;;;10.80;66.02
77250;BME280;66287;42.658;27.568;2023-03-01T14:00:25;100848.53;;;10.80;66.31
77250;BME280;66287;42.658;27.568;2023-03-01T14:53:49;100835.69;;;10.15;66.09
77250;BME280;66287;42.658;27.568;2023-03-01T14:56:15;100843.88;;;10.07;66.25
77250;BME280;66287;42.658;27.568;2023-03-01T14:58:42;100839.41;;;9.99;66.87
77250;BME280;66287;42.658;27.568;2023-03-01T15:01:13;100849.00;;;10.01;67.73
77250;BME280;66287;42.658;27.568;2023-03-01T15:03:43;100841.91;;;10.00;67.27
77250;BME280;66287;42.658;27.568;2023-03-01T15:06:14;100840.97;;;9.93;66.90
77250;BME280;66287;42.658;27.568;2023-03-01T15:09:03;100834.25;;;9.89;67.39
77250;BME280;66287;42.658;27.568;2023-03-01T15:11:58;100831.53;;;9.89;66.88
77250;BME280;66287;42.658;27.568;2023-03-01T15:14:27;100835.91;;;9.90;66.71
77250;BME280;66287;42.658;27.568;2023-03-01T15:16:53;100828.47;;;9.92;66.37
77250;BME280;66287;42.658;27.568;2023-03-01T15:19:19;100831.47;;;9.97;66.46
77250;BME280;66287;42.658;27.568;2023-03-01T15:21:47;100834.81;;;9.99;66.31
77250;BME280;66287;42.658;27.568;2023-03-01T15:26:49;100822.38;;;9.90;66.29
77250;BME280;66287;42.658;27.568;2023-03-01T15:29:19;100823.41;;;9.89;66.33
77250;BME280;66287;42.658;27.568;2023-03-01T15:34:24;100822.56;;;9.89;66.06
77250;BME280;66287;42.658;27.568;2023-03-01T15:36:51;100836.28;;;9.87;66.21
77250;BME280;66287;42.658;27.568;2023-03-01T15:39:33;100839.16;;;9.86;66.27
77250;BME280;66287;42.658;27.568;2023-03-01T15:42:03;100844.28;;;9.81;65.75
77250;BME280;66287;42.658;27.568;2023-03-01T15:44:31;100844.00;;;9.76;66.97
77250;BME280;66287;42.658;27.568;2023-03-01T15:46:57;100850.13;;;9.70;66.17
77250;BME280;66287;42.658;27.568;2023-03-01T15:51:57;100843.09;;;9.60;66.80
77250;BME280;66287;42.658;27.568;2023-03-01T15:54:23;100841.78;;;9.56;66.58
77250;BME280;66287;42.658;27.568;2023-03-01T15:56:50;100844.84;;;9.53;66.57
77250;BME280;66287;42.658;27.568;2023-03-01T15:59:16;100841.50;;;9.51;67.10
77250;BME280;66287;42.658;27.568;2023-03-01T16:01:42;100832.88;;;9.48;67.38
77250;BME280;66287;42.658;27.568;2023-03-01T16:04:25;100848.81;;;9.43;67.15
77250;BME280;66287;42.658;27.568;2023-03-01T16:06:50;100849.38;;;9.38;67.19
77250;BME280;66287;42.658;27.568;2023-03-01T16:09:23;100850.56;;;9.36;66.99
77250;BME280;66287;42.658;27.568;2023-03-01T16:11:49;100857.16;;;9.33;67.62
77250;BME280;66287;42.658;27.568;2023-03-01T16:14:15;100868.50;;;9.28;67.15
77250;BME280;66287;42.658;27.568;2023-03-01T16:16:41;100872.59;;;9.24;67.31
77250;BME280;66287;42.658;27.568;2023-03-01T16:19:07;100872.94;;;9.21;66.28
77250;BME280;66287;42.658;27.568;2023-03-01T16:21:32;100879.09;;;9.15;66.24
77250;BME280;66287;42.658;27.568;2023-03-01T16:23:57;100885.19;;;9.09;66.47
77250;BME280;66287;42.658;27.568;2023-03-01T16:26:23;100893.28;;;9.09;66.99
77250;BME280;66287;42.658;27.568;2023-03-01T16:28:48;100894.31;;;9.08;67.65
77250;BME280;66287;42.658;27.568;2023-03-01T16:31:16;100906.50;;;9.04;67.09
77250;BME280;66287;42.658;27.568;2023-03-01T16:33:43;100910.88;;;9.05;68.02
77250;BME280;66287;42.658;27.568;2023-03-01T16:36:14;100903.28;;;9.01;66.89
77250;BME280;66287;42.658;27.568;2023-03-01T16:38:39;100900.47;;;8.94;66.91
77250;BME280;66287;42.658;27.568;2023-03-01T16:41:05;100898.59;;;8.94;66.96
77250;BME280;66287;42.658;27.568;2023-03-01T16:43:30;100910.09;;;8.96;67.46
77250;BME280;66287;42.658;27.568;2023-03-01T16:45:56;100907.91;;;8.92;66.89
77250;BME280;66287;42.658;27.568;2023-03-01T16:48:22;100911.78;;;8.89;67.18
77250;BME280;66287;42.658;27.568;2023-03-01T16:51:00;100915.84;;;8.85;67.23
77250;BME280;66287;42.658;27.568;2023-03-01T16:53:26;100908.94;;;8.83;66.53
77250;BME280;66287;42.658;27.568;2023-03-01T16:55:55;100915.34;;;8.82;67.72
77250;BME280;66287;42.658;27.568;2023-03-01T16:58:21;100914.69;;;8.80;67.10
77250;BME280;66287;42.658;27.568;2023-03-01T17:00:49;100916.06;;;8.76;67.60
77250;BME280;66287;42.658;27.568;2023-03-01T17:03:14;100918.94;;;8.74;67.25
77250;BME280;66287;42.658;27.568;2023-03-01T17:05:42;100917.25;;;8.73;67.61
77250;BME280;66287;42.658;27.568;2023-03-01T17:08:07;100925.19;;;8.75;67.79
77250;BME280;66287;42.658;27.568;2023-03-01T17:10:33;100913.72;;;8.73;68.40
77250;BME280;66287;42.658;27.568;2023-03-01T17:12:58;100917.78;;;8.69;68.19
77250;BME280;66287;42.658;27.568;2023-03-01T17:15:24;100915.41;;;8.66;67.35
77250;BME280;66287;42.658;27.568;2023-03-01T17:17:49;100913.06;;;8.62;67.67
77250;BME280;66287;42.658;27.568;2023-03-01T17:20:16;100912.59;;;8.59;68.03
77250;BME280;66287;42.658;27.568;2023-03-01T17:22:41;100909.19;;;8.57;67.12
77250;BME280;66287;42.658;27.568;2023-03-01T17:25:08;100908.19;;;8.58;68.64
77250;BME280;66287;42.658;27.568;2023-03-01T17:27:33;100910.22;;;8.56;68.92
77250;BME280;66287;42.658;27.568;2023-03-01T17:29:59;100905.00;;;8.54;68.34
77250;BME280;66287;42.658;27.568;2023-03-01T17:32:25;100902.97;;;8.56;67.98
77250;BME280;66287;42.658;27.568;2023-03-01T17:34:50;100901.09;;;8.57;68.88
77250;BME280;66287;42.658;27.568;2023-03-01T17:37:15;100889.78;;;8.53;68.04
77250;BME280;66287;42.658;27.568;2023-03-01T17:39:41;100881.00;;;8.51;68.33
77250;BME280;66287;42.658;27.568;2023-03-01T17:42:06;100884.72;;;8.50;68.26
77250;BME280;66287;42.658;27.568;2023-03-01T17:44:32;100889.47;;;8.48;67.64
77250;BME280;66287;42.658;27.568;2023-03-01T17:47:02;100881.69;;;8.45;68.17
77250;BME280;66287;42.658;27.568;2023-03-01T17:49:31;100872.56;;;8.46;68.73
77250;BME280;66287;42.658;27.568;2023-03-01T17:51:57;100864.69;;;8.37;68.25
77250;BME280;66287;42.658;27.568;2023-03-01T17:54:23;100863.16;;;8.34;67.78
77250;BME280;66287;42.658;27.568;2023-03-01T17:56:48;100859.44;;;8.35;68.75
77250;BME280;66287;42.658;27.568;2023-03-01T17:59:14;100864.31;;;8.32;68.50
77250;BME280;66287;42.658;27.568;2023-03-01T18:01:41;100860.63;;;8.33;68.94
77250;BME280;66287;42.658;27.568;2023-03-01T18:04:07;100855.91;;;8.35;68.86
77250;BME280;66287;42.658;27.568;2023-03-01T18:06:34;100855.22;;;8.33;68.70
77250;BME280;66287;42.658;27.568;2023-03-01T18:08:59;100861.78;;;8.30;68.41
77250;BME280;66287;42.658;27.568;2023-03-01T18:11:25;100864.81;;;8.27;68.16
77250;BME280;66287;42.658;27.568;2023-03-01T18:13:52;100867.53;;;8.27;68.77
77250;BME280;66287;42.658;27.568;2023-03-01T18:16:18;100865.84;;;8.26;68.32
77250;BME280;66287;42.658;27.568;2023-03-01T18:18:47;100856.38;;;8.30;68.08
77250;BME280;66287;42.658;27.568;2023-03-01T18:21:19;100868.53;;;8.26;67.92
77250;BME280;66287;42.658;27.568;2023-03-01T18:23:45;100876.97;;;8.23;68.38
77250;BME280;66287;42.658;27.568;2023-03-01T18:26:11;100873.59;;;8.21;68.69
77250;BME280;66287;42.658;27.568;2023-03-01T18:28:37;100883.41;;;8.14;67.77
77250;BME280;66287;42.658;27.568;2023-03-01T18:31:04;100875.50;;;8.12;68.84
77250;BME280;66287;42.658;27.568;2023-03-01T18:33:32;100876.16;;;8.14;68.80
77250;BME280;66287;42.658;27.568;2023-03-01T18:35:58;100876.66;;;8.10;68.22
77250;BME280;66287;42.658;27.568;2023-03-01T18:38:23;100878.00;;;8.06;68.24
77250;BME280;66287;42.658;27.568;2023-03-01T18:40:52;100874.50;;;7.97;68.45
77250;BME280;66287;42.658;27.568;2023-03-01T18:43:20;100877.34;;;7.95;68.43
77250;BME280;66287;42.658;27.568;2023-03-01T18:45:46;100878.53;;;7.93;68.80
77250;BME280;66287;42.658;27.568;2023-03-01T18:48:12;100881.91;;;7.95;68.63
77250;BME280;66287;42.658;27.568;2023-03-01T18:50:38;100885.28;;;7.97;69.00
77250;BME280;66287;42.658;27.568;2023-03-01T18:53:04;100883.78;;;7.94;68.30
77250;BME280;66287;42.658;27.568;2023-03-01T18:55:36;100874.31;;;7.90;68.51
77250;BME280;66287;42.658;27.568;2023-03-01T18:58:02;100877.84;;;7.91;68.46
77250;BME280;66287;42.658;27.568;2023-03-01T19:00:27;100887.97;;;7.89;68.35
77250;BME280;66287;42.658;27.568;2023-03-01T19:02:55;100886.13;;;7.89;68.92
77250;BME280;66287;42.658;27.568;2023-03-01T19:05:24;100890.16;;;7.85;68.86
77250;BME280;66287;42.658;27.568;2023-03-01T19:07:49;100878.34;;;7.86;69.09
77250;BME280;66287;42.658;27.568;2023-03-01T19:10:16;100882.22;;;7.84;68.46
77250;BME280;66287;42.658;27.568;2023-03-01T19:12:42;100885.09;;;7.82;69.50
77250;BME280;66287;42.658;27.568;2023-03-01T19:15:07;100887.97;;;7.81;68.51
77250;BME280;66287;42.658;27.568;2023-03-01T19:17:38;100891.03;;;7.78;68.76
77250;BME280;66287;42.658;27.568;2023-03-01T19:20:16;100885.13;;;7.74;68.76
77250;BME280;66287;42.658;27.568;2023-03-01T19:22:42;100884.44;;;7.72;69.75
77250;BME280;66287;42.658;27.568;2023-03-01T19:25:08;100888.16;;;7.71;68.80
77250;BME280;66287;42.658;27.568;2023-03-01T19:27:34;100889.16;;;7.70;69.12
77250;BME280;66287;42.658;27.568;2023-03-01T19:30:03;100894.06;;;7.75;69.67
77250;BME280;66287;42.658;27.568;2023-03-01T19:32:28;100891.03;;;7.78;69.54
77250;BME280;66287;42.658;27.568;2023-03-01T19:34:54;100895.06;;;7.74;69.07
77250;BME280;66287;42.658;27.568;2023-03-01T19:37:19;100887.28;;;7.71;69.43
77250;BME280;66287;42.658;27.568;2023-03-01T19:39:48;100891.00;;;7.70;69.32
77250;BME280;66287;42.658;27.568;2023-03-01T19:42:13;100890.16;;;7.69;69.82
77250;BME280;66287;42.658;27.568;2023-03-01T19:44:39;100887.63;;;7.68;69.39
77250;BME280;66287;42.658;27.568;2023-03-01T19:47:08;100886.63;;;7.69;69.00
77250;BME280;66287;42.658;27.568;2023-03-01T19:49:36;100888.47;;;7.68;68.81
77250;BME280;66287;42.658;27.568;2023-03-01T19:52:02;100881.38;;;7.67;69.03
77250;BME280;66287;42.658;27.568;2023-03-01T19:54:28;100876.00;;;7.67;69.40
77250;BME280;66287;42.658;27.568;2023-03-01T19:56:53;100878.84;;;7.66;68.74
77250;BME280;66287;42.658;27.568;2023-03-01T19:59:20;100877.34;;;7.63;68.80
77250;BME280;66287;42.658;27.568;2023-03-01T20:01:48;100883.41;;;7.65;69.77
77250;BME280;66287;42.658;27.568;2023-03-01T20:04:14;100887.13;;;7.64;69.30
77250;BME280;66287;42.658;27.568;2023-03-01T20:06:39;100880.34;;;7.60;69.12
77250;BME280;66287;42.658;27.568;2023-03-01T20:09:06;100876.34;;;7.56;69.84
77250;BME280;66287;42.658;27.568;2023-03-01T20:11:32;100870.25;;;7.54;69.14
77250;BME280;66287;42.658;27.568;2023-03-01T20:14:00;100873.13;;;7.52;69.20
77250;BME280;66287;42.658;27.568;2023-03-01T20:16:26;100877.66;;;7.52;69.26
77250;BME280;66287;42.658;27.568;2023-03-01T20:18:52;100871.28;;;7.53;69.56
77250;BME280;66287;42.658;27.568;2023-03-01T20:21:17;100881.03;;;7.54;69.09
77250;BME280;66287;42.658;27.568;2023-03-01T20:23:45;100867.72;;;7.52;69.72
77250;BME280;66287;42.658;27.568;2023-03-01T20:26:11;100870.59;;;7.51;69.14
77250;BME280;66287;42.658;27.568;2023-03-01T20:28:43;100871.59;;;7.50;69.71
77250;BME280;66287;42.658;27.568;2023-03-01T20:31:10;100877.00;;;7.50;69.06
77250;BME280;66287;42.658;27.568;2023-03-01T20:33:36;100880.69;;;7.49;70.03
77250;BME280;66287;42.658;27.568;2023-03-01T20:36:02;100878.16;;;7.47;69.28
77250;BME280;66287;42.658;27.568;2023-03-01T20:38:27;100876.31;;;7.48;69.86
77250;BME280;66287;42.658;27.568;2023-03-01T20:40:58;100878.16;;;7.47;69.76
77250;BME280;66287;42.658;27.568;2023-03-01T20:43:24;100880.84;;;7.47;69.72
77250;BME280;66287;42.658;27.568;2023-03-01T20:45:49;100883.72;;;7.46;69.78
77250;BME280;66287;42.658;27.568;2023-03-01T20:48:15;100887.44;;;7.45;69.27
77250;BME280;66287;42.658;27.568;2023-03-01T20:50:40;100889.44;;;7.43;69.96
77250;BME280;66287;42.658;27.568;2023-03-01T20:53:06;100885.75;;;7.44;69.15
77250;BME280;66287;42.658;27.568;2023-03-01T20:55:31;100891.28;;;7.42;69.63
77250;BME280;66287;42.658;27.568;2023-03-01T20:57:57;100888.75;;;7.41;70.04
77250;BME280;66287;42.658;27.568;2023-03-01T21:00:22;100888.75;;;7.41;70.01
77250;BME280;66287;42.658;27.568;2023-03-01T21:02:48;100901.41;;;7.40;70.14
77250;BME280;66287;42.658;27.568;2023-03-01T21:05:13;100893.50;;;7.39;70.55
77250;BME280;66287;42.658;27.568;2023-03-01T21:07:39;100892.66;;;7.38;70.24
77250;BME280;66287;42.658;27.568;2023-03-01T21:10:04;100891.97;;;7.36;70.52
77250;BME280;66287;42.658;27.568;2023-03-01T21:12:30;100891.13;;;7.36;69.49
77250;BME280;66287;42.658;27.568;2023-03-01T21:14:55;100891.97;;;7.36;70.48
77250;BME280;66287;42.658;27.568;2023-03-01T21:17:21;100891.28;;;7.34;70.35
77250;BME280;66287;42.658;27.568;2023-03-01T21:19:46;100884.22;;;7.33;70.51
77250;BME280;66287;42.658;27.568;2023-03-01T21:22:12;100888.75;;;7.33;69.97
77250;BME280;66287;42.658;27.568;2023-03-01T21:24:39;100891.47;;;7.33;70.13
77250;BME280;66287;42.658;27.568;2023-03-01T21:27:04;100896.16;;;7.31;70.66
77250;BME280;66287;42.658;27.568;2023-03-01T21:29:35;100899.88;;;7.30;70.57
77250;BME280;66287;42.658;27.568;2023-03-01T21:32:01;100891.78;;;7.30;70.43
77250;BME280;66287;42.658;27.568;2023-03-01T21:34:26;100890.94;;;7.29;70.47
77250;BME280;66287;42.658;27.568;2023-03-01T21:36:52;100887.56;;;7.27;70.37
77250;BME280;66287;42.658;27.568;2023-03-01T21:39:17;100879.63;;;7.25;70.50
77250;BME280;66287;42.658;27.568;2023-03-01T21:41:43;100886.03;;;7.24;70.16
77250;BME280;66287;42.658;27.568;2023-03-01T21:44:08;100880.81;;;7.23;70.57
77250;BME280;66287;42.658;27.568;2023-03-01T21:46:35;100879.97;;;7.22;69.91
77250;BME280;66287;42.658;27.568;2023-03-01T21:49:01;100878.09;;;7.23;70.43
77250;BME280;66287;42.658;27.568;2023-03-01T21:51:29;100877.41;;;7.21;70.62
77250;BME280;66287;42.658;27.568;2023-03-01T21:53:55;100874.88;;;7.19;70.35
77250;BME280;66287;42.658;27.568;2023-03-01T21:56:25;100872.19;;;7.19;70.97
77250;BME280;66287;42.658;27.568;2023-03-01T21:58:51;100866.81;;;7.19;70.88
77250;BME280;66287;42.658;27.568;2023-03-01T22:01:17;100872.19;;;7.19;70.48
77250;BME280;66287;42.658;27.568;2023-03-01T22:03:43;100862.44;;;7.18;70.75
77250;BME280;66287;42.658;27.568;2023-03-01T22:06:13;100865.16;;;7.18;70.95
77250;BME280;66287;42.658;27.568;2023-03-01T22:11:13;100859.06;;;7.16;70.48
77250;BME280;66287;42.658;27.568;2023-03-01T22:13:39;100851.16;;;7.15;70.69
77250;BME280;66287;42.658;27.568;2023-03-01T22:16:04;100845.59;;;7.16;70.42
77250;BME280;66287;42.658;27.568;2023-03-01T22:18:30;100845.59;;;7.16;70.64
77250;BME280;66287;42.658;27.568;2023-03-01T22:20:55;100837.66;;;7.15;70.81
77250;BME280;66287;42.658;27.568;2023-03-01T22:23:21;100842.22;;;7.14;70.88
77250;BME280;66287;42.658;27.568;2023-03-01T22:25:46;100837.66;;;7.15;70.50
77250;BME280;66287;42.658;27.568;2023-03-01T22:28:11;100843.06;;;7.15;70.39
77250;BME280;66287;42.658;27.568;2023-03-01T22:30:37;100839.53;;;7.14;70.97
77250;BME280;66287;42.658;27.568;2023-03-01T22:33:03;100829.06;;;7.11;71.20
77250;BME280;66287;42.658;27.568;2023-03-01T22:35:28;100837.16;;;7.11;70.99
77250;BME280;66287;42.658;27.568;2023-03-01T22:37:54;100846.09;;;7.12;70.90
77250;BME280;66287;42.658;27.568;2023-03-01T22:40:19;100837.31;;;7.10;70.48
77250;BME280;66287;42.658;27.568;2023-03-01T22:42:44;100839.16;;;7.09;71.16
77250;BME280;66287;42.658;27.568;2023-03-01T22:45:10;100836.47;;;7.09;70.39
77250;BME280;66287;42.658;27.568;2023-03-01T22:47:35;100838.31;;;7.09;71.14
77250;BME280;66287;42.658;27.568;2023-03-01T22:50:04;100845.56;;;7.08;71.08
77250;BME280;66287;42.658;27.568;2023-03-01T22:52:30;100842.03;;;7.08;70.63
77250;BME280;66287;42.658;27.568;2023-03-01T22:54:55;100844.72;;;7.08;71.12
77250;BME280;66287;42.658;27.568;2023-03-01T22:57:21;100846.56;;;7.07;71.19
77250;BME280;66287;42.658;27.568;2023-03-01T22:59:46;100846.56;;;7.07;70.62
77250;BME280;66287;42.658;27.568;2023-03-01T23:02:12;100846.56;;;7.07;70.95
77250;BME280;66287;42.658;27.568;2023-03-01T23:04:37;100843.03;;;7.07;71.34
77250;BME280;66287;42.658;27.568;2023-03-01T23:07:02;100847.75;;;7.05;70.64
77250;BME280;66287;42.658;27.568;2023-03-01T23:09:29;100855.66;;;7.06;70.72
77250;BME280;66287;42.658;27.568;2023-03-01T23:11:55;100848.59;;;7.05;71.27
77250;BME280;66287;42.658;27.568;2023-03-01T23:14:21;100846.06;;;7.04;71.09
77250;BME280;66287;42.658;27.568;2023-03-01T23:16:47;100846.91;;;7.04;70.85
77250;BME280;66287;42.658;27.568;2023-03-01T23:19:12;100848.91;;;7.02;71.20
77250;BME280;66287;42.658;27.568;2023-03-01T23:21:41;100847.22;;;7.01;70.64
77250;BME280;66287;42.658;27.568;2023-03-01T23:24:11;100842.84;;;7.00;70.96
77250;BME280;66287;42.658;27.568;2023-03-01T23:26:37;100850.91;;;7.00;71.36
77250;BME280;66287;42.658;27.568;2023-03-01T23:29:04;100843.88;;;6.99;71.26
77250;BME280;66287;42.658;27.568;2023-03-01T23:31:30;100840.50;;;6.97;71.41
77250;BME280;66287;42.658;27.568;2023-03-01T23:33:55;100838.47;;;6.99;71.27
77250;BME280;66287;42.658;27.568;2023-03-01T23:36:22;100830.56;;;6.98;71.06
77250;BME280;66287;42.658;27.568;2023-03-01T23:38:49;100827.03;;;6.97;71.24
77250;BME280;66287;42.658;27.568;2023-03-01T23:41:16;100821.63;;;6.97;71.38
77250;BME280;66287;42.658;27.568;2023-03-01T23:43:45;100813.53;;;6.97;71.25
77250;BME280;66287;42.658;27.568;2023-03-01T23:46:11;100815.56;;;6.95;71.45
77250;BME280;66287;42.658;27.568;2023-03-01T23:48:38;100815.56;;;6.95;71.21
77250;BME280;66287;42.658;27.568;2023-03-01T23:51:04;100806.78;;;6.93;71.34
77250;BME280;66287;42.658;27.568;2023-03-01T23:53:29;100805.94;;;6.93;71.48
77250;BME280;66287;42.658;27.568;2023-03-01T23:55:55;100811.34;;;6.93;71.45
77250;BME280;66287;42.658;27.568;2023-03-01T23:58:20;100809.66;;;6.91;71.51
